createdAt,value
2023-01-09T00:02:26.899Z,3.20
2023-01-09T00:04:55.062Z,3.05
2023-01-09T00:07:25.517Z,2.63
2023-01-09T00:09:53.575Z,1.77
2023-01-09T00:12:21.719Z,3.30
2023-01-09T00:14:49.745Z,1.45
2023-01-09T00:17:17.890Z,2.15
2023-01-09T00:19:46.031Z,2.70
2023-01-09T00:22:14.127Z,3.92
2023-01-09T00:24:44.641Z,3.45
2023-01-09T00:27:14.360Z,1.70
2023-01-09T00:29:45.956Z,2.22
2023-01-09T00:32:14.423Z,3.78
2023-01-09T00:34:44.072Z,2.85
2023-01-09T00:37:13.220Z,1.65
2023-01-09T00:39:42.603Z,5.72
2023-01-09T00:42:16.071Z,1.92
2023-01-09T00:44:47.850Z,1.17
2023-01-09T00:47:22.253Z,1.38
2023-01-09T00:49:52.553Z,2.40
2023-01-09T00:52:21.526Z,2.38
2023-01-09T00:54:50.279Z,1.45
2023-01-09T00:57:19.846Z,1.27
2023-01-09T00:59:48.388Z,3.53
2023-01-09T01:02:16.662Z,3.03
2023-01-09T01:05:02.194Z,1.92
2023-01-09T01:07:43.369Z,1.83
2023-01-09T01:10:13.977Z,1.55
2023-01-09T01:12:45.007Z,1.98
2023-01-09T01:15:14.110Z,2.58
2023-01-09T01:17:43.378Z,2.58
2023-01-09T01:20:14.244Z,3.33
2023-01-09T01:22:43.035Z,2.78
2023-01-09T01:25:12.440Z,1.55
2023-01-09T01:27:41.266Z,1.83
2023-01-09T01:30:13.350Z,2.03
2023-01-09T01:32:41.687Z,2.63
2023-01-09T01:35:10.598Z,2.83
2023-01-09T01:37:40.093Z,2.80
2023-01-09T01:40:09.958Z,4.00
2023-01-09T01:42:38.167Z,5.35
2023-01-09T01:45:10.961Z,2.08
2023-01-09T01:47:46.607Z,3.30
2023-01-09T01:50:20.715Z,3.63
2023-01-09T01:52:55.488Z,7.22
2023-01-09T01:55:24.622Z,1.75
2023-01-09T01:57:57.876Z,3.03
2023-01-09T02:00:32.091Z,2.83
2023-01-09T02:03:01.902Z,3.17
2023-01-09T02:05:30.788Z,2.92
2023-01-09T02:07:58.896Z,5.18
2023-01-09T02:10:27.010Z,4.05
2023-01-09T02:12:55.068Z,5.18
2023-01-09T02:15:23.419Z,3.42
2023-01-09T02:18:18.130Z,3.70
2023-01-09T02:20:53.457Z,4.38
2023-01-09T02:23:55.307Z,2.58
2023-01-09T02:26:53.301Z,4.25
2023-01-09T02:30:01.641Z,5.28
2023-01-09T02:32:44.257Z,2.38
2023-01-09T02:35:24.678Z,4.50
2023-01-09T02:38:03.457Z,2.83
2023-01-09T02:40:37.544Z,4.32
2023-01-09T02:43:08.175Z,5.60
2023-01-09T02:45:37.731Z,3.47
2023-01-09T02:48:06.345Z,4.45
2023-01-09T02:50:41.263Z,4.60
2023-01-09T02:53:49.837Z,4.57
2023-01-09T02:56:36.980Z,4.43
2023-01-09T02:59:28.148Z,5.18
2023-01-09T03:02:15.025Z,6.50
2023-01-09T03:04:54.815Z,4.93
2023-01-09T03:07:28.465Z,5.22
2023-01-09T03:10:07.245Z,5.93
2023-01-09T03:12:37.981Z,5.47
2023-01-09T03:15:07.874Z,4.72
2023-01-09T03:17:40.864Z,4.13
2023-01-09T03:20:11.892Z,5.70
2023-01-09T03:22:40.759Z,5.50
2023-01-09T03:25:09.650Z,7.47
2023-01-09T03:27:37.749Z,6.28
2023-01-09T03:30:07.109Z,4.40
2023-01-09T03:32:35.178Z,5.88
2023-01-09T03:35:05.219Z,6.00
2023-01-09T03:37:33.236Z,6.53
2023-01-09T03:40:01.565Z,7.13
2023-01-09T03:42:29.649Z,5.72
2023-01-09T03:44:57.684Z,4.97
2023-01-09T03:47:25.734Z,6.03
2023-01-09T03:49:53.829Z,5.22
2023-01-09T03:52:23.538Z,4.90
2023-01-09T03:54:51.592Z,6.00
2023-01-09T03:57:19.898Z,6.63
2023-01-09T03:59:48.062Z,5.25
2023-01-09T04:02:16.183Z,6.60
2023-01-09T04:04:44.304Z,3.90
2023-01-09T04:07:12.542Z,6.85
2023-01-09T04:09:42.042Z,4.25
2023-01-09T04:12:10.210Z,6.07
2023-01-09T04:14:38.254Z,4.55
2023-01-09T04:17:06.307Z,4.75
2023-01-09T04:19:34.508Z,4.95
2023-01-09T04:22:02.561Z,4.93
2023-01-09T04:24:32.404Z,9.73
2023-01-09T04:27:05.103Z,7.28
2023-01-09T04:29:33.132Z,7.03
2023-01-09T04:32:01.311Z,4.78
2023-01-09T04:34:29.398Z,7.22
2023-01-09T04:36:57.551Z,5.78
2023-01-09T04:39:25.740Z,7.32
2023-01-09T04:41:53.919Z,7.35
2023-01-09T04:44:26.363Z,5.70
2023-01-09T04:46:56.314Z,6.88
2023-01-09T04:49:24.425Z,8.52
2023-01-09T04:51:52.966Z,8.57
2023-01-09T04:54:23.829Z,6.97
2023-01-09T04:56:52.083Z,6.97
2023-01-09T04:59:20.303Z,7.70
2023-01-09T05:01:50.347Z,7.20
2023-01-09T05:04:18.530Z,11.68
2023-01-09T05:06:46.606Z,7.05
2023-01-09T05:09:15.717Z,7.47
2023-01-09T05:11:44.028Z,8.93
2023-01-09T05:14:12.932Z,7.22
2023-01-09T05:16:41.092Z,10.30
2023-01-09T05:19:10.608Z,9.52
2023-01-09T05:21:38.712Z,10.52
2023-01-09T05:24:07.311Z,9.30
2023-01-09T05:26:35.381Z,4.93
2023-01-09T05:29:03.411Z,7.28
2023-01-09T05:31:31.578Z,6.13
2023-01-09T05:34:00.890Z,7.28
2023-01-09T05:36:30.682Z,5.32
2023-01-09T05:39:02.748Z,6.00
2023-01-09T05:41:31.048Z,7.68
2023-01-09T05:43:59.147Z,5.85
2023-01-09T05:46:27.405Z,6.93
2023-01-09T05:48:55.457Z,7.25
2023-01-09T05:51:23.617Z,6.25
2023-01-09T05:53:53.096Z,8.55
2023-01-09T05:56:21.161Z,4.38
2023-01-09T05:58:49.780Z,7.85
2023-01-09T06:01:18.035Z,8.15
2023-01-09T06:03:46.781Z,6.45
2023-01-09T06:06:14.923Z,5.50
2023-01-09T06:08:43.287Z,5.97
2023-01-09T06:11:12.729Z,7.70
2023-01-09T06:13:40.937Z,5.63
2023-01-09T06:16:09.629Z,7.45
2023-01-09T06:18:37.726Z,7.38
2023-01-09T06:21:06.621Z,5.28
2023-01-09T06:23:34.696Z,8.07
2023-01-09T06:26:02.842Z,7.18
2023-01-09T06:28:32.353Z,7.85
2023-01-09T06:31:00.931Z,7.70
2023-01-09T06:33:29.024Z,8.15
2023-01-09T06:35:57.095Z,9.27
2023-01-09T06:38:25.263Z,8.07
2023-01-09T06:40:53.318Z,8.57
2023-01-09T06:43:21.350Z,4.97
2023-01-09T06:45:50.851Z,10.60
2023-01-09T06:48:18.932Z,10.25
2023-01-09T06:50:49.207Z,13.43
2023-01-09T06:53:20.606Z,6.60
2023-01-09T06:55:48.750Z,12.65
2023-01-09T06:58:16.804Z,7.55
2023-01-09T07:00:44.954Z,8.25
2023-01-09T07:03:19.730Z,7.07
2023-01-09T07:05:48.207Z,6.72
2023-01-09T07:08:16.797Z,10.40
2023-01-09T07:10:45.656Z,9.30
2023-01-09T07:13:13.816Z,6.43
2023-01-09T07:15:41.895Z,8.68
2023-01-09T07:18:09.972Z,10.23
2023-01-09T07:20:41.822Z,8.35
2023-01-09T07:23:12.657Z,7.80
2023-01-09T07:25:40.972Z,9.30
2023-01-09T07:28:09.027Z,7.30
2023-01-09T07:30:37.066Z,8.20
2023-01-09T07:33:05.276Z,6.85
2023-01-09T07:35:35.972Z,8.80
2023-01-09T07:38:05.473Z,8.50
2023-01-09T07:40:33.688Z,8.32
2023-01-09T07:43:01.739Z,8.10
2023-01-09T07:45:29.962Z,8.68
2023-01-09T07:47:58.098Z,9.98
2023-01-09T07:50:26.372Z,8.98
2023-01-09T07:52:54.464Z,9.95
2023-01-09T07:55:23.963Z,7.05
2023-01-09T07:57:53.562Z,6.45
2023-01-09T08:00:22.251Z,8.68
2023-01-09T08:02:53.408Z,9.85
2023-01-09T08:05:22.073Z,9.45
2023-01-09T08:07:51.576Z,6.32
2023-01-09T08:10:21.128Z,10.05
2023-01-09T08:12:51.285Z,11.18
2023-01-09T08:15:19.696Z,8.10
2023-01-09T08:17:48.494Z,10.48
2023-01-09T08:20:18.331Z,8.18
2023-01-09T08:22:50.745Z,7.35
2023-01-09T08:25:19.705Z,6.22
2023-01-09T08:27:48.214Z,10.57
2023-01-09T08:30:19.061Z,8.80
2023-01-09T08:32:50.752Z,7.25
2023-01-09T08:35:20.153Z,11.63
2023-01-09T08:37:49.082Z,8.35
2023-01-09T08:40:18.804Z,9.13
2023-01-09T08:43:06.549Z,7.85
2023-01-09T08:45:53.560Z,7.15
2023-01-09T08:48:21.721Z,12.60
2023-01-09T08:50:49.873Z,11.45
2023-01-09T08:53:17.977Z,8.90
2023-01-09T08:55:46.058Z,8.98
2023-01-09T08:58:14.121Z,8.20
2023-01-09T09:00:44.037Z,9.30
2023-01-09T09:03:13.557Z,9.57
2023-01-09T09:05:41.995Z,5.78
2023-01-09T09:08:10.174Z,9.00
2023-01-09T09:10:38.320Z,9.52
2023-01-09T09:13:06.828Z,9.07
2023-01-09T09:15:35.221Z,8.48
2023-01-09T09:18:07.116Z,7.53
2023-01-09T09:20:37.035Z,6.55
2023-01-09T09:23:05.710Z,7.18
2023-01-09T09:25:33.824Z,9.10
2023-01-09T09:28:05.170Z,9.75
2023-01-09T09:30:34.133Z,7.88
2023-01-09T09:33:05.992Z,8.40
2023-01-09T09:35:34.879Z,9.25
2023-01-09T09:38:05.812Z,9.98
2023-01-09T09:40:55.567Z,9.43
2023-01-09T09:44:20.421Z,7.68
2023-01-09T09:46:55.220Z,5.72
2023-01-09T09:49:29.215Z,7.40
2023-01-09T09:52:05.521Z,7.15
2023-01-09T09:54:38.130Z,5.22
2023-01-09T09:59:38.760Z,7.38
2023-01-09T10:02:20.989Z,6.07
2023-01-09T10:04:57.927Z,6.47
2023-01-09T10:07:32.122Z,5.32
2023-01-09T10:10:05.137Z,7.10
2023-01-09T10:12:36.954Z,7.90
2023-01-09T10:15:17.769Z,9.13
2023-01-09T10:18:02.421Z,7.55
2023-01-09T10:20:56.174Z,7.68
2023-01-09T10:23:53.549Z,9.65
2023-01-09T10:26:28.914Z,10.55
2023-01-09T10:29:20.228Z,9.25
2023-01-09T10:32:03.175Z,10.88
2023-01-09T10:37:12.501Z,11.45
2023-01-09T10:39:45.443Z,9.93
2023-01-09T10:42:23.179Z,8.52
2023-01-09T10:44:58.098Z,8.32
2023-01-09T10:47:31.137Z,8.00
2023-01-09T10:50:01.115Z,7.03
2023-01-09T10:52:36.684Z,9.20
2023-01-09T10:55:15.031Z,8.43
2023-01-09T10:57:45.321Z,9.90
2023-01-09T11:00:21.034Z,6.95
2023-01-09T11:02:50.925Z,9.70
2023-01-09T11:05:21.797Z,7.45
2023-01-09T11:07:56.346Z,9.88
2023-01-09T11:10:24.922Z,7.43
2023-01-09T11:13:15.004Z,8.48
2023-01-09T11:15:43.090Z,9.45
2023-01-09T11:18:24.492Z,11.52
2023-01-09T11:20:53.165Z,12.20
2023-01-09T11:23:31.400Z,7.78
2023-01-09T11:26:01.421Z,7.63
2023-01-09T11:28:30.364Z,8.70
2023-01-09T11:31:03.590Z,6.00
2023-01-09T11:33:35.929Z,6.07
2023-01-09T11:36:08.159Z,7.57
2023-01-09T11:38:50.825Z,7.82
2023-01-09T11:41:22.197Z,5.47
2023-01-09T11:43:52.943Z,6.68
2023-01-09T11:46:38.844Z,5.72
2023-01-09T11:49:22.901Z,10.80
2023-01-09T11:52:19.553Z,5.55
2023-01-09T11:54:56.493Z,5.13
2023-01-09T11:57:26.120Z,7.40
2023-01-09T11:59:57.845Z,8.40
2023-01-09T12:02:43.489Z,10.00
2023-01-09T12:05:23.042Z,6.15
2023-01-09T12:08:20.500Z,5.70
2023-01-09T12:11:08.716Z,5.57
2023-01-09T12:13:50.117Z,10.75
2023-01-09T12:16:28.140Z,4.95
2023-01-09T12:19:17.001Z,4.93
2023-01-09T12:21:51.427Z,7.65
2023-01-09T12:24:34.624Z,9.10
2023-01-09T12:30:02.938Z,6.03
2023-01-09T12:32:44.405Z,8.63
2023-01-09T12:35:25.194Z,5.43
2023-01-09T12:38:07.596Z,8.40
2023-01-09T12:40:49.793Z,7.55
2023-01-09T12:43:26.947Z,11.40
2023-01-09T12:46:06.414Z,9.23
2023-01-09T12:48:51.513Z,9.60
2023-01-09T12:51:40.840Z,16.30
2023-01-09T12:54:15.673Z,11.70
2023-01-09T12:56:49.083Z,11.07
2023-01-09T12:59:31.122Z,10.00
2023-01-09T13:02:13.733Z,8.73
2023-01-09T13:04:49.445Z,11.75
2023-01-09T13:07:22.370Z,13.63
2023-01-09T13:09:55.430Z,9.00
2023-01-09T13:12:25.842Z,11.73
2023-01-09T13:15:00.710Z,14.27
2023-01-09T13:17:32.699Z,8.48
2023-01-09T13:20:00.937Z,8.00
2023-01-09T13:22:31.480Z,12.38
2023-01-09T13:25:39.042Z,11.00
2023-01-09T13:28:14.549Z,12.38
2023-01-09T13:31:04.186Z,11.80
2023-01-09T13:33:35.788Z,10.30
2023-01-09T13:36:05.014Z,9.45
2023-01-09T13:38:35.097Z,5.63
2023-01-09T13:41:33.576Z,7.40
2023-01-09T13:44:04.632Z,6.85
2023-01-09T13:46:38.176Z,10.07
2023-01-09T13:49:08.288Z,15.27
2023-01-09T13:51:59.039Z,8.73
2023-01-09T13:55:01.851Z,9.32
2023-01-09T13:57:32.543Z,6.40
2023-01-09T14:00:39.323Z,7.80
2023-01-09T14:03:18.525Z,8.63
2023-01-09T14:06:20.788Z,9.50
2023-01-09T14:08:52.042Z,8.55
2023-01-09T14:11:27.381Z,11.18
2023-01-09T14:14:22.750Z,9.73
2023-01-09T14:16:50.959Z,8.65
2023-01-09T14:19:36.006Z,12.40
2023-01-09T14:22:05.415Z,7.78
2023-01-09T14:24:41.057Z,6.10
2023-01-09T14:27:48.431Z,6.47
2023-01-09T14:30:35.362Z,5.82
2023-01-09T14:33:05.265Z,8.05
2023-01-09T14:35:44.051Z,6.68
2023-01-09T14:38:37.346Z,9.77
2023-01-09T14:41:12.474Z,8.70
2023-01-09T14:44:16.132Z,5.22
2023-01-09T14:46:45.083Z,7.25
2023-01-09T14:49:31.665Z,6.53
2023-01-09T14:52:04.461Z,2.92
2023-01-09T14:54:35.265Z,3.80
2023-01-09T14:57:03.457Z,5.18
2023-01-09T14:59:31.541Z,5.50
2023-01-09T15:02:00.539Z,2.72
2023-01-09T15:04:35.363Z,6.55
2023-01-09T15:07:06.432Z,6.53
2023-01-09T15:09:46.917Z,4.72
2023-01-09T15:12:22.142Z,6.30
2023-01-09T15:14:55.168Z,7.32
2023-01-09T15:17:26.631Z,6.78
2023-01-09T15:19:56.112Z,7.65
2023-01-09T15:22:30.148Z,4.60
2023-01-09T15:24:58.592Z,5.47
2023-01-09T15:27:27.229Z,10.27
2023-01-09T15:29:55.343Z,9.27
2023-01-09T15:32:26.227Z,10.43
2023-01-09T15:34:56.016Z,4.78
2023-01-09T15:37:30.548Z,7.90
2023-01-09T15:40:00.794Z,7.70
2023-01-09T15:42:48.473Z,8.77
2023-01-09T15:45:25.453Z,6.35
2023-01-09T15:48:15.057Z,7.32
2023-01-09T15:50:43.793Z,11.55
2023-01-09T15:53:16.311Z,11.55
2023-01-09T15:55:44.419Z,10.27
2023-01-09T15:58:27.580Z,6.82
2023-01-09T16:00:58.201Z,7.65
2023-01-09T16:03:27.193Z,12.43
2023-01-09T16:06:05.421Z,13.85
2023-01-09T16:08:38.330Z,11.18
2023-01-09T16:11:10.668Z,10.68
2023-01-09T16:13:46.026Z,10.85
2023-01-09T16:16:23.889Z,7.53
2023-01-09T16:18:54.365Z,11.50
2023-01-09T16:21:25.267Z,7.57
2023-01-09T16:23:57.602Z,9.98
2023-01-09T16:26:27.714Z,7.78
2023-01-09T16:28:56.214Z,6.75
2023-01-09T16:31:27.557Z,9.82
2023-01-09T16:33:59.515Z,11.93
2023-01-09T16:36:29.208Z,12.07
2023-01-09T16:39:00.911Z,8.93
2023-01-09T16:41:46.234Z,11.40
2023-01-09T16:44:14.543Z,10.88
2023-01-09T16:46:44.538Z,12.32
2023-01-09T16:49:19.629Z,18.58
2023-01-09T16:51:48.432Z,12.63
2023-01-09T16:54:21.064Z,13.68
2023-01-09T16:59:21.691Z,16.88
2023-01-09T17:01:50.492Z,12.98
2023-01-09T17:04:20.311Z,14.40
2023-01-09T17:06:49.960Z,18.05
2023-01-09T17:09:22.225Z,14.80
2023-01-09T17:11:50.341Z,16.48
2023-01-09T17:14:18.682Z,12.70
2023-01-09T17:16:47.081Z,16.00
2023-01-09T17:19:20.869Z,19.52
2023-01-09T17:21:49.007Z,14.65
2023-01-09T17:24:34.327Z,15.48
2023-01-09T17:27:21.231Z,13.52
2023-01-09T17:29:49.671Z,13.27
2023-01-09T17:32:19.804Z,11.98
2023-01-09T17:34:48.807Z,13.98
2023-01-09T17:37:18.647Z,14.07
2023-01-09T17:39:47.133Z,16.13
2023-01-09T17:42:19.152Z,16.60
2023-01-09T17:44:47.246Z,17.08
2023-01-09T17:47:16.231Z,20.15
2023-01-09T17:49:44.709Z,20.27
2023-01-09T17:52:12.844Z,17.20
2023-01-09T17:54:41.256Z,14.25
2023-01-09T17:57:15.389Z,14.77
2023-01-09T17:59:45.704Z,15.27
2023-01-09T18:02:18.229Z,13.52
2023-01-09T18:04:47.090Z,17.48
2023-01-09T18:07:16.531Z,12.65
2023-01-09T18:09:45.381Z,13.60
2023-01-09T18:12:13.770Z,11.23
2023-01-09T18:14:42.373Z,15.15
2023-01-09T18:17:14.277Z,16.48
2023-01-09T18:19:43.775Z,12.02
2023-01-09T18:22:11.957Z,12.65
2023-01-09T18:24:40.093Z,14.02
2023-01-09T18:27:08.405Z,14.98
2023-01-09T18:29:36.524Z,7.80
2023-01-09T18:32:04.792Z,11.15
2023-01-09T18:34:34.306Z,10.25
2023-01-09T18:37:02.414Z,9.02
2023-01-09T18:39:30.652Z,11.23
2023-01-09T18:41:58.863Z,12.48
2023-01-09T18:44:27.289Z,12.60
2023-01-09T18:46:55.546Z,11.07
2023-01-09T18:49:23.727Z,11.98
2023-01-09T18:51:53.229Z,11.73
2023-01-09T18:54:21.447Z,9.77
2023-01-09T18:56:49.633Z,9.57
2023-01-09T18:59:20.191Z,9.63
2023-01-09T19:01:48.317Z,10.65
2023-01-09T19:04:16.755Z,9.82
2023-01-09T19:06:44.929Z,8.65
2023-01-09T19:09:14.808Z,10.68
2023-01-09T19:11:44.410Z,9.32
2023-01-09T19:14:12.590Z,7.05
2023-01-09T19:16:40.908Z,11.95
2023-01-09T19:19:09.015Z,12.30
2023-01-09T19:21:37.340Z,11.15
2023-01-09T19:24:06.174Z,10.23
2023-01-09T19:26:35.695Z,8.32
2023-01-09T19:29:04.068Z,8.27
2023-01-09T19:31:32.327Z,9.43
2023-01-09T19:34:00.499Z,8.75
2023-01-09T19:36:29.511Z,9.15
2023-01-09T19:38:58.061Z,7.60
2023-01-09T19:41:26.495Z,10.02
2023-01-09T19:43:55.982Z,10.25
2023-01-09T19:46:27.142Z,10.60
2023-01-09T19:48:58.378Z,10.00
2023-01-09T19:51:26.808Z,11.45
2023-01-09T19:53:58.199Z,9.20
2023-01-09T19:56:28.486Z,9.50
2023-01-09T19:58:59.878Z,9.40
2023-01-09T20:01:30.537Z,9.88
2023-01-09T20:04:02.942Z,10.25
2023-01-09T20:06:31.769Z,12.05
2023-01-09T20:09:01.992Z,9.80
2023-01-09T20:11:32.908Z,8.10
2023-01-09T20:14:02.337Z,8.40
2023-01-09T20:16:31.939Z,10.98
2023-01-09T20:19:03.647Z,11.45
2023-01-09T20:21:32.086Z,9.63
2023-01-09T20:24:02.062Z,12.35
2023-01-09T20:26:30.511Z,5.30
2023-01-09T20:28:59.015Z,8.75
2023-01-09T20:31:31.419Z,7.65
2023-01-09T20:34:00.647Z,9.90
2023-01-09T20:36:30.249Z,11.18
2023-01-09T20:39:01.185Z,12.75
2023-01-09T20:41:31.340Z,12.18
2023-01-09T20:44:01.010Z,11.95
2023-01-09T20:46:31.940Z,11.18
2023-01-09T20:49:03.099Z,9.98
2023-01-09T20:51:32.068Z,10.77
2023-01-09T20:54:00.482Z,11.38
2023-01-09T20:56:30.125Z,10.10
2023-01-09T20:58:59.804Z,12.95
2023-01-09T21:01:29.120Z,8.52
2023-01-09T21:03:59.061Z,10.40
2023-01-09T21:06:28.688Z,13.77
2023-01-09T21:08:56.892Z,10.15
2023-01-09T21:11:25.036Z,13.35
2023-01-09T21:13:53.288Z,9.48
2023-01-09T21:16:25.707Z,12.98
2023-01-09T21:21:27.598Z,7.70
2023-01-09T21:24:00.664Z,12.98
2023-01-09T21:26:30.718Z,14.32
2023-01-09T21:29:02.948Z,12.93
2023-01-09T21:31:34.821Z,17.55
2023-01-09T21:34:05.222Z,12.68
2023-01-09T21:36:36.231Z,12.55
2023-01-09T21:39:07.879Z,13.68
2023-01-09T21:41:54.022Z,13.20
2023-01-09T21:44:39.468Z,10.70
2023-01-09T21:47:07.525Z,15.93
2023-01-09T21:49:36.273Z,12.70
2023-01-09T21:52:06.248Z,8.27
2023-01-09T21:54:35.035Z,13.57
2023-01-09T21:57:04.167Z,10.63
2023-01-09T21:59:32.514Z,11.88
2023-01-09T22:02:00.789Z,10.82
2023-01-09T22:04:30.496Z,15.50
2023-01-09T22:06:58.720Z,10.40
2023-01-09T22:09:28.656Z,12.95
2023-01-09T22:11:57.549Z,13.10
2023-01-09T22:14:25.728Z,11.00
2023-01-09T22:16:53.832Z,13.98
2023-01-09T22:19:22.389Z,12.02
2023-01-09T22:21:50.692Z,11.82
2023-01-09T22:24:21.685Z,14.65
2023-01-09T22:26:51.252Z,17.73
2023-01-09T22:29:19.864Z,14.07
2023-01-09T22:31:48.019Z,12.88
2023-01-09T22:34:18.390Z,10.68
2023-01-09T22:36:47.685Z,13.52
2023-01-09T22:39:17.710Z,9.88
2023-01-09T22:41:46.527Z,14.82
2023-01-09T22:44:16.053Z,14.00
2023-01-09T22:46:44.261Z,10.02
2023-01-09T22:49:14.174Z,13.00
2023-01-09T22:51:42.316Z,15.57
2023-01-09T22:54:10.548Z,10.55
2023-01-09T22:56:38.598Z,13.82
2023-01-09T22:59:06.878Z,9.63
2023-01-09T23:01:36.473Z,14.35
2023-01-09T23:04:04.748Z,12.52
2023-01-09T23:06:32.818Z,11.55
2023-01-09T23:09:03.160Z,10.85
2023-01-09T23:11:49.382Z,14.52
2023-01-09T23:14:17.784Z,11.15
2023-01-09T23:16:47.445Z,14.95
2023-01-09T23:19:15.943Z,17.52
2023-01-09T23:21:45.481Z,12.35
2023-01-09T23:24:15.739Z,16.33
2023-01-09T23:26:44.689Z,15.02
2023-01-09T23:29:13.816Z,12.55
2023-01-09T23:31:42.000Z,14.65
2023-01-09T23:34:15.446Z,10.80
2023-01-09T23:36:44.162Z,12.50
2023-01-09T23:39:12.367Z,13.65
2023-01-09T23:41:58.449Z,10.80
2023-01-09T23:44:26.715Z,18.10
2023-01-09T23:46:54.951Z,11.63
2023-01-09T23:49:24.607Z,13.32
2023-01-09T23:51:52.758Z,11.90
2023-01-09T23:54:20.839Z,13.25
2023-01-09T23:56:48.872Z,12.98
2023-01-09T23:59:18.109Z,12.52
